sensor_id;sensor_type;location;lat;lon;timestamp;pressure;altitude;pressure_sealevel;temperature;humidity
56719;BME280;42597;40.636;0.278;2023-03-19T00:02:19;97239.06;;;14.90;55.70
56719;BME280;42597;40.636;0.278;2023-03-19T00:04:45;97235.53;;;15.23;64.42
56719;BME280;42597;40.636;0.278;2023-03-19T00:07:12;97234.44;;;14.33;55.05
56719;BME280;42597;40.636;0.278;2023-03-19T00:09:38;97234.66;;;14.48;57.79
56719;BME280;42597;40.636;0.278;2023-03-19T00:12:04;97236.34;;;15.27;59.62
56719;BME280;42597;40.636;0.278;2023-03-19T00:14:30;97230.78;;;16.01;60.12
56719;BME280;42597;40.636;0.278;2023-03-19T00:16:56;97240.03;;;15.90;59.64
56719;BME280;42597;40.636;0.278;2023-03-19T00:19:21;97233.13;;;16.03;60.84
56719;BME280;42597;40.636;0.278;2023-03-19T00:21:47;97237.41;;;14.81;56.70
56719;BME280;42597;40.636;0.278;2023-03-19T00:24:13;97230.97;;;14.97;57.27
56719;BME280;42597;40.636;0.278;2023-03-19T00:26:40;97226.03;;;15.06;63.97
56719;BME280;42597;40.636;0.278;2023-03-19T00:29:06;97232.31;;;14.76;57.14
56719;BME280;42597;40.636;0.278;2023-03-19T00:31:32;97246.06;;;15.24;61.48
56719;BME280;42597;40.636;0.278;2023-03-19T00:33:59;97227.41;;;15.26;65.04
56719;BME280;42597;40.636;0.278;2023-03-19T00:36:25;97225.09;;;15.69;60.72
56719;BME280;42597;40.636;0.278;2023-03-19T00:38:52;97227.03;;;15.31;58.63
56719;BME280;42597;40.636;0.278;2023-03-19T00:41:19;97233.22;;;14.88;57.40
56719;BME280;42597;40.636;0.278;2023-03-19T00:43:45;97245.25;;;14.87;55.89
56719;BME280;42597;40.636;0.278;2023-03-19T00:46:12;97244.56;;;14.63;58.86
56719;BME280;42597;40.636;0.278;2023-03-19T00:48:39;97239.88;;;14.94;65.06
56719;BME280;42597;40.636;0.278;2023-03-19T00:51:07;97241.53;;;15.84;61.78
56719;BME280;42597;40.636;0.278;2023-03-19T00:53:39;97246.78;;;15.21;57.40
56719;BME280;42597;40.636;0.278;2023-03-19T00:56:07;97243.44;;;15.79;65.10
56719;BME280;42597;40.636;0.278;2023-03-19T00:58:33;97256.69;;;15.03;57.72
56719;BME280;42597;40.636;0.278;2023-03-19T01:00:59;97262.16;;;14.16;60.47
56719;BME280;42597;40.636;0.278;2023-03-19T01:03:26;97258.31;;;15.45;64.86
56719;BME280;42597;40.636;0.278;2023-03-19T01:05:51;97250.94;;;15.08;58.84
56719;BME280;42597;40.636;0.278;2023-03-19T01:08:17;97245.50;;;15.08;60.59
56719;BME280;42597;40.636;0.278;2023-03-19T01:10:44;97257.78;;;15.69;63.09
56719;BME280;42597;40.636;0.278;2023-03-19T01:13:10;97247.81;;;15.47;65.58
56719;BME280;42597;40.636;0.278;2023-03-19T01:15:40;97256.50;;;15.63;58.85
56719;BME280;42597;40.636;0.278;2023-03-19T01:18:07;97256.38;;;15.90;62.16
56719;BME280;42597;40.636;0.278;2023-03-19T01:20:34;97253.06;;;15.25;60.25
56719;BME280;42597;40.636;0.278;2023-03-19T01:23:00;97258.59;;;15.73;61.00
56719;BME280;42597;40.636;0.278;2023-03-19T01:25:26;97271.22;;;15.14;59.21
56719;BME280;42597;40.636;0.278;2023-03-19T01:27:52;97261.00;;;15.04;57.96
56719;BME280;42597;40.636;0.278;2023-03-19T01:30:18;97268.59;;;14.88;57.85
56719;BME280;42597;40.636;0.278;2023-03-19T01:32:44;97261.25;;;14.92;60.19
56719;BME280;42597;40.636;0.278;2023-03-19T01:35:10;97258.97;;;14.67;58.33
56719;BME280;42597;40.636;0.278;2023-03-19T01:37:36;97254.69;;;14.96;66.08
56719;BME280;42597;40.636;0.278;2023-03-19T01:40:03;97265.50;;;14.32;58.18
56719;BME280;42597;40.636;0.278;2023-03-19T01:42:30;97262.75;;;14.59;58.80
56719;BME280;42597;40.636;0.278;2023-03-19T01:44:56;97253.53;;;15.35;66.63
56719;BME280;42597;40.636;0.278;2023-03-19T01:47:24;97265.16;;;15.31;58.43
56719;BME280;42597;40.636;0.278;2023-03-19T01:49:54;97273.69;;;14.63;58.36
56719;BME280;42597;40.636;0.278;2023-03-19T01:52:22;97257.03;;;14.64;65.29
56719;BME280;42597;40.636;0.278;2023-03-19T01:54:49;97262.25;;;15.51;62.55
56719;BME280;42597;40.636;0.278;2023-03-19T01:57:17;97260.19;;;15.00;57.76
56719;BME280;42597;40.636;0.278;2023-03-19T01:59:46;97259.31;;;15.29;61.94
56719;BME280;42597;40.636;0.278;2023-03-19T02:02:26;97266.19;;;15.57;63.65
56719;BME280;42597;40.636;0.278;2023-03-19T02:05:10;97263.16;;;14.88;63.32
56719;BME280;42597;40.636;0.278;2023-03-19T02:07:38;97266.44;;;15.04;60.10
56719;BME280;42597;40.636;0.278;2023-03-19T02:10:08;97264.72;;;14.89;59.00
56719;BME280;42597;40.636;0.278;2023-03-19T02:12:34;97265.69;;;14.47;59.32
56719;BME280;42597;40.636;0.278;2023-03-19T02:15:00;97254.50;;;15.53;64.43
56719;BME280;42597;40.636;0.278;2023-03-19T02:17:27;97257.25;;;15.19;60.30
56719;BME280;42597;40.636;0.278;2023-03-19T02:20:03;97243.25;;;15.58;62.61
56719;BME280;42597;40.636;0.278;2023-03-19T02:22:33;97249.94;;;14.90;57.51
56719;BME280;42597;40.636;0.278;2023-03-19T02:25:08;97248.03;;;14.60;62.30
56719;BME280;42597;40.636;0.278;2023-03-19T02:27:36;97253.06;;;15.25;62.82
56719;BME280;42597;40.636;0.278;2023-03-19T02:30:24;97238.28;;;15.26;62.57
56719;BME280;42597;40.636;0.278;2023-03-19T02:32:50;97252.41;;;14.42;62.19
56719;BME280;42597;40.636;0.278;2023-03-19T02:35:16;97259.41;;;14.39;60.29
56719;BME280;42597;40.636;0.278;2023-03-19T02:37:42;97242.00;;;15.11;61.16
56719;BME280;42597;40.636;0.278;2023-03-19T02:40:14;97258.97;;;14.67;61.48
56719;BME280;42597;40.636;0.278;2023-03-19T02:42:42;97267.91;;;14.11;60.61
56719;BME280;42597;40.636;0.278;2023-03-19T02:45:07;97244.78;;;14.51;59.39
56719;BME280;42597;40.636;0.278;2023-03-19T02:47:33;97260.38;;;14.54;60.50
56719;BME280;42597;40.636;0.278;2023-03-19T02:49:59;97256.44;;;14.81;60.46
56719;BME280;42597;40.636;0.278;2023-03-19T02:52:25;97263.97;;;14.92;60.83
56719;BME280;42597;40.636;0.278;2023-03-19T02:54:51;97266.97;;;14.26;60.48
56719;BME280;42597;40.636;0.278;2023-03-19T02:57:17;97251.25;;;14.13;61.74
56719;BME280;42597;40.636;0.278;2023-03-19T02:59:42;97253.78;;;15.22;60.30
56719;BME280;42597;40.636;0.278;2023-03-19T03:02:08;97249.19;;;14.32;61.33
56719;BME280;42597;40.636;0.278;2023-03-19T03:04:34;97252.50;;;13.69;62.34
56719;BME280;42597;40.636;0.278;2023-03-19T03:07:01;97251.91;;;13.79;60.89
56719;BME280;42597;40.636;0.278;2023-03-19T03:09:27;97249.38;;;14.73;59.66
56719;BME280;42597;40.636;0.278;2023-03-19T03:11:53;97246.06;;;15.24;61.40
56719;BME280;42597;40.636;0.278;2023-03-19T03:14:18;97252.81;;;14.70;63.11
56719;BME280;42597;40.636;0.278;2023-03-19T03:16:44;97242.94;;;14.89;60.54
56719;BME280;42597;40.636;0.278;2023-03-19T03:19:09;97239.94;;;14.37;60.73
56719;BME280;42597;40.636;0.278;2023-03-19T03:21:36;97242.50;;;15.20;64.30
56719;BME280;42597;40.636;0.278;2023-03-19T03:24:01;97252.31;;;14.35;63.77
56719;BME280;42597;40.636;0.278;2023-03-19T03:26:27;97251.25;;;15.03;60.43
56719;BME280;42597;40.636;0.278;2023-03-19T03:28:53;97249.28;;;15.37;63.19
56719;BME280;42597;40.636;0.278;2023-03-19T03:31:18;97237.13;;;15.27;60.74
56719;BME280;42597;40.636;0.278;2023-03-19T03:33:44;97244.25;;;15.02;59.13
56719;BME280;42597;40.636;0.278;2023-03-19T03:36:10;97243.44;;;14.64;59.17
56719;BME280;42597;40.636;0.278;2023-03-19T03:38:36;97254.91;;;14.80;59.91
56719;BME280;42597;40.636;0.278;2023-03-19T03:41:02;97264.22;;;15.13;58.42
56719;BME280;42597;40.636;0.278;2023-03-19T03:43:27;97240.22;;;15.26;64.09
56719;BME280;42597;40.636;0.278;2023-03-19T03:45:54;97259.63;;;15.21;58.72
56719;BME280;42597;40.636;0.278;2023-03-19T03:48:19;97256.38;;;15.08;62.57
56719;BME280;42597;40.636;0.278;2023-03-19T03:50:46;97246.69;;;14.77;60.32
56719;BME280;42597;40.636;0.278;2023-03-19T03:53:11;97258.50;;;15.25;61.89
56719;BME280;42597;40.636;0.278;2023-03-19T03:55:37;97261.31;;;15.33;60.97
56719;BME280;42597;40.636;0.278;2023-03-19T03:58:03;97252.66;;;14.90;60.75
56719;BME280;42597;40.636;0.278;2023-03-19T04:00:29;97268.63;;;14.35;60.00
56719;BME280;42597;40.636;0.278;2023-03-19T04:02:54;97270.78;;;14.78;62.79
56719;BME280;42597;40.636;0.278;2023-03-19T04:05:20;97264.56;;;14.21;61.47
56719;BME280;42597;40.636;0.278;2023-03-19T04:07:46;97259.66;;;14.91;62.40
56719;BME280;42597;40.636;0.278;2023-03-19T04:10:12;97266.94;;;14.79;61.46
56719;BME280;42597;40.636;0.278;2023-03-19T04:12:38;97277.97;;;14.11;59.64
56719;BME280;42597;40.636;0.278;2023-03-19T04:15:05;97277.44;;;14.24;60.38
56719;BME280;42597;40.636;0.278;2023-03-19T04:17:32;97269.09;;;15.34;61.69
56719;BME280;42597;40.636;0.278;2023-03-19T04:19:58;97272.91;;;14.62;60.02
56719;BME280;42597;40.636;0.278;2023-03-19T04:22:23;97255.78;;;14.58;62.83
56719;BME280;42597;40.636;0.278;2023-03-19T04:24:49;97263.00;;;15.48;64.06
56719;BME280;42597;40.636;0.278;2023-03-19T04:27:14;97276.22;;;14.78;62.11
56719;BME280;42597;40.636;0.278;2023-03-19T04:29:40;97282.50;;;14.82;61.03
56719;BME280;42597;40.636;0.278;2023-03-19T04:32:06;97283.47;;;15.68;62.52
56719;BME280;42597;40.636;0.278;2023-03-19T04:34:31;97294.19;;;14.87;57.13
56719;BME280;42597;40.636;0.278;2023-03-19T04:36:57;97296.91;;;13.80;61.40
56719;BME280;42597;40.636;0.278;2023-03-19T04:39:23;97305.94;;;14.38;60.44
56719;BME280;42597;40.636;0.278;2023-03-19T04:41:49;97297.72;;;14.57;60.79
56719;BME280;42597;40.636;0.278;2023-03-19T04:44:15;97290.31;;;14.84;63.15
56719;BME280;42597;40.636;0.278;2023-03-19T04:46:41;97308.78;;;14.45;60.39
56719;BME280;42597;40.636;0.278;2023-03-19T04:49:08;97302.81;;;14.36;64.47
56719;BME280;42597;40.636;0.278;2023-03-19T04:51:34;97301.50;;;14.79;58.37
56719;BME280;42597;40.636;0.278;2023-03-19T04:53:59;97313.78;;;14.43;62.65
56719;BME280;42597;40.636;0.278;2023-03-19T04:56:25;97332.41;;;14.67;62.58
56719;BME280;42597;40.636;0.278;2023-03-19T04:58:52;97325.91;;;14.22;60.35
56719;BME280;42597;40.636;0.278;2023-03-19T05:01:18;97314.66;;;15.07;62.62
56719;BME280;42597;40.636;0.278;2023-03-19T05:03:43;97320.50;;;14.75;60.17
56719;BME280;42597;40.636;0.278;2023-03-19T05:06:09;97329.72;;;14.97;62.34
56719;BME280;42597;40.636;0.278;2023-03-19T05:08:35;97339.72;;;15.23;63.51
56719;BME280;42597;40.636;0.278;2023-03-19T05:11:01;97340.31;;;14.76;61.50
56719;BME280;42597;40.636;0.278;2023-03-19T05:13:27;97337.78;;;14.60;63.40
56719;BME280;42597;40.636;0.278;2023-03-19T05:15:53;97353.88;;;15.02;62.23
56719;BME280;42597;40.636;0.278;2023-03-19T05:18:20;97354.16;;;14.41;60.36
56719;BME280;42597;40.636;0.278;2023-03-19T05:20:46;97356.13;;;15.27;64.72
56719;BME280;42597;40.636;0.278;2023-03-19T05:23:11;97344.66;;;14.80;61.69
56719;BME280;42597;40.636;0.278;2023-03-19T05:25:37;97357.59;;;14.11;61.85
56719;BME280;42597;40.636;0.278;2023-03-19T05:28:03;97346.88;;;14.71;59.86
56719;BME280;42597;40.636;0.278;2023-03-19T05:30:29;97358.31;;;14.57;61.79
56719;BME280;42597;40.636;0.278;2023-03-19T05:32:59;97362.59;;;13.44;61.12
56719;BME280;42597;40.636;0.278;2023-03-19T05:35:27;97370.97;;;14.23;61.75
56719;BME280;42597;40.636;0.278;2023-03-19T05:37:54;97373.94;;;13.30;60.97
56719;BME280;42597;40.636;0.278;2023-03-19T05:40:20;97378.69;;;14.21;64.26
56719;BME280;42597;40.636;0.278;2023-03-19T05:42:46;97379.53;;;14.02;59.21
56719;BME280;42597;40.636;0.278;2023-03-19T05:45:12;97381.00;;;14.19;64.29
56719;BME280;42597;40.636;0.278;2023-03-19T05:47:38;97376.03;;;14.02;60.51
56719;BME280;42597;40.636;0.278;2023-03-19T05:50:05;97388.56;;;13.25;61.43
56719;BME280;42597;40.636;0.278;2023-03-19T05:52:31;97375.31;;;14.77;64.89
56719;BME280;42597;40.636;0.278;2023-03-19T05:54:57;97399.63;;;13.98;61.38
56719;BME280;42597;40.636;0.278;2023-03-19T05:57:22;97393.50;;;14.01;60.67
56719;BME280;42597;40.636;0.278;2023-03-19T05:59:48;97389.63;;;14.74;61.84
56719;BME280;42597;40.636;0.278;2023-03-19T06:02:14;97391.06;;;14.65;62.11
56719;BME280;42597;40.636;0.278;2023-03-19T06:04:40;97386.91;;;15.01;62.84
56719;BME280;42597;40.636;0.278;2023-03-19T06:07:05;97397.19;;;14.12;63.19
56719;BME280;42597;40.636;0.278;2023-03-19T06:09:31;97405.56;;;14.03;59.90
56719;BME280;42597;40.636;0.278;2023-03-19T06:11:56;97397.78;;;14.48;64.07
56719;BME280;42597;40.636;0.278;2023-03-19T06:14:22;97383.16;;;14.10;58.83
56719;BME280;42597;40.636;0.278;2023-03-19T06:16:48;97406.69;;;13.79;60.23
56719;BME280;42597;40.636;0.278;2023-03-19T06:19:13;97409.97;;;14.35;62.93
56719;BME280;42597;40.636;0.278;2023-03-19T06:21:39;97413.00;;;14.79;58.97
56719;BME280;42597;40.636;0.278;2023-03-19T06:24:05;97423.56;;;14.57;63.84
56719;BME280;42597;40.636;0.278;2023-03-19T06:26:32;97431.78;;;13.73;60.95
56719;BME280;42597;40.636;0.278;2023-03-19T06:28:58;97421.78;;;14.95;62.64
56719;BME280;42597;40.636;0.278;2023-03-19T06:31:23;97435.91;;;14.28;61.00
56719;BME280;42597;40.636;0.278;2023-03-19T06:33:50;97433.41;;;14.43;62.42
56719;BME280;42597;40.636;0.278;2023-03-19T06:36:16;97437.38;;;14.03;63.17
56719;BME280;42597;40.636;0.278;2023-03-19T06:38:42;97444.53;;;14.57;63.17
56719;BME280;42597;40.636;0.278;2023-03-19T06:41:08;97443.25;;;14.74;64.32
56719;BME280;42597;40.636;0.278;2023-03-19T06:43:33;97447.81;;;14.01;63.60
56719;BME280;42597;40.636;0.278;2023-03-19T06:46:05;97447.78;;;14.66;60.83
56719;BME280;42597;40.636;0.278;2023-03-19T06:48:32;97447.72;;;15.12;63.69
56719;BME280;42597;40.636;0.278;2023-03-19T06:50:58;97453.16;;;14.63;60.28
56719;BME280;42597;40.636;0.278;2023-03-19T06:53:24;97459.41;;;14.90;60.93
56719;BME280;42597;40.636;0.278;2023-03-19T06:55:49;97474.59;;;14.91;61.11
56719;BME280;42597;40.636;0.278;2023-03-19T06:58:15;97472.16;;;14.59;62.39
56719;BME280;42597;40.636;0.278;2023-03-19T07:00:41;97483.19;;;14.47;58.07
56719;BME280;42597;40.636;0.278;2023-03-19T07:03:08;97475.63;;;14.56;58.96
56719;BME280;42597;40.636;0.278;2023-03-19T07:05:34;97482.66;;;15.37;59.52
56719;BME280;42597;40.636;0.278;2023-03-19T07:08:00;97481.72;;;14.99;58.46
56719;BME280;42597;40.636;0.278;2023-03-19T07:10:26;97486.09;;;14.80;57.99
56719;BME280;42597;40.636;0.278;2023-03-19T07:12:51;97480.91;;;14.98;60.61
56719;BME280;42597;40.636;0.278;2023-03-19T07:15:17;97480.00;;;15.14;61.22
56719;BME280;42597;40.636;0.278;2023-03-19T07:17:46;97479.28;;;14.67;60.40
56719;BME280;42597;40.636;0.278;2023-03-19T07:20:12;97484.69;;;15.17;61.68
56719;BME280;42597;40.636;0.278;2023-03-19T07:22:38;97488.16;;;15.14;60.25
56719;BME280;42597;40.636;0.278;2023-03-19T07:25:05;97433.91;;;15.58;59.33
56719;BME280;42597;40.636;0.278;2023-03-19T07:27:30;97482.13;;;15.27;58.46
56719;BME280;42597;40.636;0.278;2023-03-19T07:29:56;97489.53;;;15.00;57.04
56719;BME280;42597;40.636;0.278;2023-03-19T07:32:21;97483.97;;;14.93;56.81
56719;BME280;42597;40.636;0.278;2023-03-19T07:34:48;97500.03;;;14.75;56.72
56719;BME280;42597;40.636;0.278;2023-03-19T07:37:13;97501.00;;;15.43;58.59
56719;BME280;42597;40.636;0.278;2023-03-19T07:39:39;97503.69;;;15.40;59.03
56719;BME280;42597;40.636;0.278;2023-03-19T07:42:05;97515.53;;;15.24;56.17
56719;BME280;42597;40.636;0.278;2023-03-19T07:44:31;97501.66;;;15.33;59.35
56719;BME280;42597;40.636;0.278;2023-03-19T07:46:56;97514.78;;;15.27;56.74
56719;BME280;42597;40.636;0.278;2023-03-19T07:49:22;97523.06;;;15.35;57.83
56719;BME280;42597;40.636;0.278;2023-03-19T07:51:48;97535.63;;;15.69;58.41
56719;BME280;42597;40.636;0.278;2023-03-19T07:54:13;97521.72;;;15.78;55.16
56719;BME280;42597;40.636;0.278;2023-03-19T07:56:39;97532.59;;;14.72;55.32
56719;BME280;42597;40.636;0.278;2023-03-19T07:59:05;97526.53;;;15.62;57.27
56719;BME280;42597;40.636;0.278;2023-03-19T08:01:31;97537.09;;;15.37;55.37
56719;BME280;42597;40.636;0.278;2023-03-19T08:03:56;97540.38;;;15.23;58.52
56719;BME280;42597;40.636;0.278;2023-03-19T08:06:22;97539.28;;;15.54;54.99
56719;BME280;42597;40.636;0.278;2023-03-19T08:08:48;97544.63;;;15.47;55.82
56719;BME280;42597;40.636;0.278;2023-03-19T08:11:14;97553.13;;;15.42;54.42
56719;BME280;42597;40.636;0.278;2023-03-19T08:13:40;97538.41;;;15.73;52.59
56719;BME280;42597;40.636;0.278;2023-03-19T08:16:06;97554.16;;;16.20;57.03
56719;BME280;42597;40.636;0.278;2023-03-19T08:18:33;97546.78;;;15.91;58.79
56719;BME280;42597;40.636;0.278;2023-03-19T08:20:58;97554.50;;;15.85;52.80
56719;BME280;42597;40.636;0.278;2023-03-19T08:23:24;97560.78;;;15.89;55.57
56719;BME280;42597;40.636;0.278;2023-03-19T08:25:49;97566.31;;;15.66;52.74
56719;BME280;42597;40.636;0.278;2023-03-19T08:28:17;97562.34;;;16.20;57.36
56719;BME280;42597;40.636;0.278;2023-03-19T08:30:43;97580.03;;;14.97;53.89
56719;BME280;42597;40.636;0.278;2023-03-19T08:33:08;97563.91;;;15.35;53.60
56719;BME280;42597;40.636;0.278;2023-03-19T08:35:34;97576.34;;;15.62;55.17
56719;BME280;42597;40.636;0.278;2023-03-19T08:37:59;97584.53;;;15.62;55.59
56719;BME280;42597;40.636;0.278;2023-03-19T08:40:25;97573.09;;;15.79;53.51
56719;BME280;42597;40.636;0.278;2023-03-19T08:42:52;97591.47;;;15.60;54.01
56719;BME280;42597;40.636;0.278;2023-03-19T08:45:18;97602.63;;;15.51;52.72
56719;BME280;42597;40.636;0.278;2023-03-19T08:47:45;97604.69;;;15.58;56.77
56719;BME280;42597;40.636;0.278;2023-03-19T08:50:10;97607.66;;;16.02;54.10
56719;BME280;42597;40.636;0.278;2023-03-19T08:52:36;97603.47;;;15.55;53.25
56719;BME280;42597;40.636;0.278;2023-03-19T08:55:02;97615.03;;;15.71;52.07
56719;BME280;42597;40.636;0.278;2023-03-19T08:57:29;97618.06;;;15.66;51.17
56719;BME280;42597;40.636;0.278;2023-03-19T08:59:55;97635.03;;;15.56;51.62
56719;BME280;42597;40.636;0.278;2023-03-19T09:02:20;97629.66;;;15.63;50.87
56719;BME280;42597;40.636;0.278;2023-03-19T09:04:46;97614.97;;;16.24;52.69
56719;BME280;42597;40.636;0.278;2023-03-19T09:07:12;97611.66;;;16.08;51.57
56719;BME280;42597;40.636;0.278;2023-03-19T09:09:40;97632.16;;;16.28;51.28
56719;BME280;42597;40.636;0.278;2023-03-19T09:12:07;97632.69;;;16.11;52.79
56719;BME280;42597;40.636;0.278;2023-03-19T09:14:34;97632.13;;;15.68;51.03
56719;BME280;42597;40.636;0.278;2023-03-19T09:17:00;97632.69;;;16.11;52.24
56719;BME280;42597;40.636;0.278;2023-03-19T09:19:25;97625.88;;;16.28;51.84
56719;BME280;42597;40.636;0.278;2023-03-19T09:21:51;97648.56;;;15.75;49.72
56719;BME280;42597;40.636;0.278;2023-03-19T09:24:17;97641.34;;;16.84;52.79
56719;BME280;42597;40.636;0.278;2023-03-19T09:26:44;97647.91;;;16.76;49.62
56719;BME280;42597;40.636;0.278;2023-03-19T09:29:09;97643.75;;;16.22;49.20
56719;BME280;42597;40.636;0.278;2023-03-19T09:31:36;97643.00;;;16.89;52.05
56719;BME280;42597;40.636;0.278;2023-03-19T09:34:01;97649.41;;;16.36;49.56
56719;BME280;42597;40.636;0.278;2023-03-19T09:36:27;97657.78;;;16.54;49.05
56719;BME280;42597;40.636;0.278;2023-03-19T09:38:53;97676.25;;;16.04;49.49
56719;BME280;42597;40.636;0.278;2023-03-19T09:41:28;97664.31;;;16.16;49.75
56719;BME280;42597;40.636;0.278;2023-03-19T09:49:37;97672.16;;;16.51;49.65
56719;BME280;42597;40.636;0.278;2023-03-19T09:55:48;97672.53;;;16.19;49.04
56719;BME280;42597;40.636;0.278;2023-03-19T09:57:47;97663.81;;;16.70;49.73
56719;BME280;42597;40.636;0.278;2023-03-19T10:02:42;97662.00;;;16.82;50.82
56719;BME280;42597;40.636;0.278;2023-03-19T10:15:59;97685.59;;;16.67;49.14
56719;BME280;42597;40.636;0.278;2023-03-19T10:18:34;97669.75;;;16.46;46.81
56719;BME280;42597;40.636;0.278;2023-03-19T10:21:11;97672.06;;;16.74;49.72
56719;BME280;42597;40.636;0.278;2023-03-19T10:23:56;97672.59;;;16.87;49.52
56719;BME280;42597;40.636;0.278;2023-03-19T10:26:29;97676.22;;;16.98;50.36
56719;BME280;42597;40.636;0.278;2023-03-19T10:29:08;97687.97;;;16.68;47.35
56719;BME280;42597;40.636;0.278;2023-03-19T10:34:31;97678.63;;;16.69;47.68
56719;BME280;42597;40.636;0.278;2023-03-19T10:37:19;97679.69;;;16.95;48.29
56719;BME280;42597;40.636;0.278;2023-03-19T10:39:51;97681.88;;;17.19;48.54
56719;BME280;42597;40.636;0.278;2023-03-19T10:44:58;97689.38;;;17.26;49.70
56719;BME280;42597;40.636;0.278;2023-03-19T10:47:26;97686.16;;;17.20;46.62
56719;BME280;42597;40.636;0.278;2023-03-19T10:49:52;97686.25;;;17.27;49.98
56719;BME280;42597;40.636;0.278;2023-03-19T10:52:32;97704.59;;;16.90;46.88
56719;BME280;42597;40.636;0.278;2023-03-19T10:55:03;97677.19;;;16.79;47.37
56719;BME280;42597;40.636;0.278;2023-03-19T10:57:29;97672.44;;;17.10;49.13
56719;BME280;42597;40.636;0.278;2023-03-19T11:00:01;97670.34;;;17.37;47.66
56719;BME280;42597;40.636;0.278;2023-03-19T11:02:29;97689.28;;;16.51;47.20
56719;BME280;42597;40.636;0.278;2023-03-19T11:05:26;97671.88;;;16.93;48.42
56719;BME280;42597;40.636;0.278;2023-03-19T11:08:16;97669.53;;;17.33;48.41
56719;BME280;42597;40.636;0.278;2023-03-19T11:10:47;97669.31;;;17.11;48.39
56719;BME280;42597;40.636;0.278;2023-03-19T11:13:24;97670.75;;;17.39;49.11
56719;BME280;42597;40.636;0.278;2023-03-19T11:15:52;97672.44;;;17.54;47.83
56719;BME280;42597;40.636;0.278;2023-03-19T11:18:23;97658.28;;;17.41;45.69
56719;BME280;42597;40.636;0.278;2023-03-19T11:20:55;97659.75;;;17.32;45.06
56719;BME280;42597;40.636;0.278;2023-03-19T11:23:26;97662.31;;;17.58;48.66
56719;BME280;42597;40.636;0.278;2023-03-19T11:25:54;97656.75;;;17.47;49.27
56719;BME280;42597;40.636;0.278;2023-03-19T11:28:24;97651.72;;;17.49;47.26
56719;BME280;42597;40.636;0.278;2023-03-19T11:31:20;97670.00;;;17.42;45.46
56719;BME280;42597;40.636;0.278;2023-03-19T11:39:20;97657.56;;;17.51;46.25
56719;BME280;42597;40.636;0.278;2023-03-19T11:50:02;97650.63;;;17.61;46.41
56719;BME280;42597;40.636;0.278;2023-03-19T11:52:34;97647.53;;;17.66;45.70
56719;BME280;42597;40.636;0.278;2023-03-19T12:00:31;97653.81;;;17.70;47.24
56719;BME280;42597;40.636;0.278;2023-03-19T12:05:55;97649.31;;;17.96;45.97
56719;BME280;42597;40.636;0.278;2023-03-19T12:08:52;97643.28;;;17.72;46.35
56719;BME280;42597;40.636;0.278;2023-03-19T12:11:42;97646.41;;;17.71;45.40
56719;BME280;42597;40.636;0.278;2023-03-19T12:22:37;97637.94;;;17.87;44.03
56719;BME280;42597;40.636;0.278;2023-03-19T12:25:27;97629.59;;;17.65;46.34
56719;BME280;42597;40.636;0.278;2023-03-19T12:36:39;97620.91;;;17.56;43.39
56719;BME280;42597;40.636;0.278;2023-03-19T12:39:14;97627.50;;;18.07;44.83
56719;BME280;42597;40.636;0.278;2023-03-19T12:41:43;97627.47;;;17.99;42.58
56719;BME280;42597;40.636;0.278;2023-03-19T12:44:21;97619.59;;;17.87;43.38
56719;BME280;42597;40.636;0.278;2023-03-19T12:46:55;97622.75;;;17.96;46.76
56719;BME280;42597;40.636;0.278;2023-03-19T12:49:29;97614.78;;;17.73;43.07
56719;BME280;42597;40.636;0.278;2023-03-19T12:54:50;97617.25;;;17.93;42.85
56719;BME280;42597;40.636;0.278;2023-03-19T12:57:31;97604.06;;;18.13;44.28
56719;BME280;42597;40.636;0.278;2023-03-19T13:00:09;97615.44;;;18.18;43.99
56719;BME280;42597;40.636;0.278;2023-03-19T13:02:47;97605.75;;;18.39;43.25
56719;BME280;42597;40.636;0.278;2023-03-19T13:10:31;97597.94;;;18.34;42.41
56719;BME280;42597;40.636;0.278;2023-03-19T13:12:57;97599.53;;;18.49;43.05
56719;BME280;42597;40.636;0.278;2023-03-19T13:23:29;97601.47;;;18.38;43.05
56719;BME280;42597;40.636;0.278;2023-03-19T13:25:56;97598.63;;;18.09;42.28
56719;BME280;42597;40.636;0.278;2023-03-19T13:28:35;97593.16;;;18.16;41.46
56719;BME280;42597;40.636;0.278;2023-03-19T13:34:07;97590.06;;;18.25;44.15
56719;BME280;42597;40.636;0.278;2023-03-19T13:36:44;97587.78;;;18.34;42.57
56719;BME280;42597;40.636;0.278;2023-03-19T13:39:17;97577.63;;;18.49;43.35
56719;BME280;42597;40.636;0.278;2023-03-19T13:41:52;97568.28;;;18.50;43.29
56719;BME280;42597;40.636;0.278;2023-03-19T13:47:35;97572.59;;;18.62;43.75
56719;BME280;42597;40.636;0.278;2023-03-19T13:52:48;97565.16;;;18.62;43.49
56719;BME280;42597;40.636;0.278;2023-03-19T13:58:13;97563.56;;;18.47;41.11
56719;BME280;42597;40.636;0.278;2023-03-19T14:01:03;97564.34;;;18.44;42.39
56719;BME280;42597;40.636;0.278;2023-03-19T14:03:34;97569.81;;;18.44;41.80
56719;BME280;42597;40.636;0.278;2023-03-19T14:06:01;97571.69;;;18.15;41.95
56719;BME280;42597;40.636;0.278;2023-03-19T14:08:44;97562.97;;;17.91;43.12
56719;BME280;42597;40.636;0.278;2023-03-19T14:11:30;97564.31;;;18.30;45.33
56719;BME280;42597;40.636;0.278;2023-03-19T14:14:00;97568.28;;;18.57;44.96
56719;BME280;42597;40.636;0.278;2023-03-19T14:16:36;97557.66;;;18.31;40.47
56719;BME280;42597;40.636;0.278;2023-03-19T14:19:10;97560.44;;;18.48;40.90
56719;BME280;42597;40.636;0.278;2023-03-19T14:24:39;97547.91;;;18.33;48.25
56719;BME280;42597;40.636;0.278;2023-03-19T14:27:17;97558.88;;;18.51;48.62
56719;BME280;42597;40.636;0.278;2023-03-19T14:29:43;97570.34;;;17.84;51.56
56719;BME280;42597;40.636;0.278;2023-03-19T14:32:20;97575.38;;;17.74;52.20
56719;BME280;42597;40.636;0.278;2023-03-19T14:34:48;97571.97;;;17.92;52.33
56719;BME280;42597;40.636;0.278;2023-03-19T14:37:25;97574.88;;;17.58;55.03
56719;BME280;42597;40.636;0.278;2023-03-19T14:40:02;97572.50;;;17.53;54.90
56719;BME280;42597;40.636;0.278;2023-03-19T14:46:02;97570.50;;;16.95;57.49
56719;BME280;42597;40.636;0.278;2023-03-19T14:48:19;97567.13;;;17.09;57.73